Time,TemperatureF,DewpointF,PressureIn,WindDirection,WindDirectionDegrees,WindSpeedMPH,WindSpeedGustMPH,Humidity,HourlyPrecipIn,Conditions,Clouds,dailyrainin,SoftwareType,DateUTC
2013-10-11 00:03:00,54.7,52.0,29.80,South,180,2.4,13.6,91,0.00,,,0.00,WUHU21636XXSP,2013-10-11 05:03:00,
2013-10-11 00:13:00,54.7,52.0,29.80,SSE,157,7.1,14.0,91,0.00,,,0.00,WUHU21636XXSP,2013-10-11 05:13:00,
2013-10-11 00:23:00,54.5,51.8,29.79,SSW,202,6.0,18.5,91,0.00,,,0.00,WUHU21636XXSP,2013-10-11 05:23:00,
2013-10-11 00:33:00,54.3,51.6,29.79,South,180,2.0,19.9,91,0.00,,,0.00,WUHU21636XXSP,2013-10-11 05:33:00,
2013-10-11 00:43:00,54.1,51.4,29.76,South,180,3.1,5.1,92,0.00,,,0.00,WUHU21636XXSP,2013-10-11 05:43:00,
2013-10-11 00:53:00,53.8,51.4,29.77,SSW,202,7.1,13.4,92,0.00,,,0.00,WUHU21636XXSP,2013-10-11 05:53:00,
2013-10-11 01:03:00,53.8,51.4,29.78,SSW,202,7.6,18.5,92,0.00,,,0.00,WUHU21636XXSP,2013-10-11 06:03:00,
2013-10-11 01:13:00,53.8,51.4,29.77,South,180,6.7,18.5,92,0.00,,,0.00,WUHU21636XXSP,2013-10-11 06:13:00,
2013-10-11 01:23:00,53.8,51.4,29.77,SSW,202,9.8,17.6,92,0.00,,,0.00,WUHU21636XXSP,2013-10-11 06:23:00,
2013-10-11 01:33:00,54.0,51.6,29.77,South,180,3.1,22.8,92,0.00,,,0.00,WUHU21636XXSP,2013-10-11 06:33:00,
2013-10-11 01:43:00,54.1,51.8,29.77,SSW,202,16.5,21.0,92,0.00,,,0.00,WUHU21636XXSP,2013-10-11 06:43:00,
2013-10-11 01:53:00,54.1,51.8,29.76,South,180,6.9,20.3,92,0.00,,,0.00,WUHU21636XXSP,2013-10-11 06:53:00,
2013-10-11 02:03:00,54.1,51.8,29.77,SSW,202,9.6,19.6,92,0.00,,,0.00,WUHU21636XXSP,2013-10-11 07:03:00,
2013-10-11 02:13:00,54.0,51.6,29.77,South,180,3.5,21.0,92,0.00,,,0.00,WUHU21636XXSP,2013-10-11 07:13:00,
2013-10-11 02:23:00,54.0,51.6,29.77,SW,225,8.7,19.9,92,0.00,,,0.00,WUHU21636XXSP,2013-10-11 07:23:00,
2013-10-11 02:33:00,53.8,51.4,29.77,SSW,202,12.7,21.4,92,0.00,,,0.00,WUHU21636XXSP,2013-10-11 07:33:00,
2013-10-11 02:43:00,53.8,51.1,29.77,SW,225,16.1,23.7,91,0.00,,,0.00,WUHU21636XXSP,2013-10-11 07:43:00,
2013-10-11 02:53:00,53.8,51.1,29.77,SSE,157,10.7,23.9,91,0.00,,,0.00,WUHU21636XXSP,2013-10-11 07:53:00,
2013-10-11 03:03:00,54.0,51.1,29.77,SSW,202,15.4,31.7,90,0.00,,,0.00,WUHU21636XXSP,2013-10-11 08:03:00,
2013-10-11 03:13:00,54.1,50.0,29.77,SW,225,14.5,32.4,86,0.00,,,0.00,WUHU21636XXSP,2013-10-11 08:13:00,
2013-10-11 03:23:00,54.3,47.1,29.76,WSW,247,16.1,34.6,77,0.00,,,0.00,WUHU21636XXSP,2013-10-11 08:23:00,
2013-10-11 03:33:00,55.0,45.0,29.76,SW,225,17.2,38.2,69,0.00,,,0.00,WUHU21636XXSP,2013-10-11 08:33:00,
2013-10-11 03:43:00,55.0,45.0,29.76,WSW,247,13.4,25.9,69,0.00,,,0.00,WUHU21636XXSP,2013-10-11 08:43:00,
2013-10-11 03:53:00,54.7,45.1,29.76,SW,225,9.3,27.7,70,0.00,,,0.00,WUHU21636XXSP,2013-10-11 08:53:00,
2013-10-11 04:03:00,54.1,44.8,29.76,SW,225,9.8,25.2,71,0.00,,,0.00,WUHU21636XXSP,2013-10-11 09:03:00,
2013-10-11 04:13:00,54.0,45.0,29.77,WSW,247,5.3,17.6,72,0.00,,,0.00,WUHU21636XXSP,2013-10-11 09:13:00,
2013-10-11 04:23:00,53.2,44.1,29.77,West,270,6.7,12.9,71,0.00,,,0.00,WUHU21636XXSP,2013-10-11 09:23:00,
2013-10-11 04:33:00,52.9,42.4,29.76,WSW,247,3.5,16.3,68,0.00,,,0.00,WUHU21636XXSP,2013-10-11 09:33:00,
2013-10-11 04:43:00,52.7,42.8,29.75,WSW,247,4.0,15.4,69,0.00,,,0.00,WUHU21636XXSP,2013-10-11 09:43:00,
2013-10-11 04:53:00,52.2,42.6,29.76,WSW,247,0.0,8.2,70,0.00,,,0.00,WUHU21636XXSP,2013-10-11 09:53:00,
2013-10-11 05:03:00,51.6,42.4,29.76,WSW,247,2.4,6.4,71,0.00,,,0.00,WUHU21636XXSP,2013-10-11 10:03:00,
2013-10-11 05:13:00,51.4,42.3,29.75,WSW,247,0.0,2.4,72,0.00,,,0.00,WUHU21636XXSP,2013-10-11 10:13:00,
2013-10-11 05:23:00,50.9,42.1,29.75,WSW,247,0.0,2.9,72,0.00,,,0.00,WUHU21636XXSP,2013-10-11 10:23:00,
2013-10-11 05:33:00,50.7,42.3,29.74,SW,225,4.6,6.2,73,0.00,,,0.00,WUHU21636XXSP,2013-10-11 10:33:00,
2013-10-11 05:43:00,50.7,41.9,29.74,WSW,247,4.4,12.0,72,0.00,,,0.00,WUHU21636XXSP,2013-10-11 10:43:00,
2013-10-11 05:53:00,50.5,41.7,29.74,SSW,202,4.4,11.8,72,0.00,,,0.00,WUHU21636XXSP,2013-10-11 10:53:00,
2013-10-11 06:03:00,50.2,42.1,29.75,SW,225,4.6,12.5,74,0.00,,,0.00,WUHU21636XXSP,2013-10-11 11:03:00,
2013-10-11 06:13:00,49.6,42.3,29.74,SW,225,5.8,15.4,76,0.00,,,0.00,WUHU21636XXSP,2013-10-11 11:13:00,
2013-10-11 06:23:00,49.5,42.4,29.75,SW,225,3.1,13.4,77,0.00,,,0.00,WUHU21636XXSP,2013-10-11 11:23:00,
2013-10-11 06:33:00,49.1,42.4,29.75,WSW,247,3.8,11.1,78,0.00,,,0.00,WUHU21636XXSP,2013-10-11 11:33:00,
2013-10-11 06:43:00,48.9,42.3,29.75,SW,225,0.6,6.4,77,0.00,,,0.00,WUHU21636XXSP,2013-10-11 11:43:00,
2013-10-11 06:53:00,48.9,41.2,29.75,WSW,247,0.0,18.1,75,0.00,,,0.00,WUHU21636XXSP,2013-10-11 11:53:00,
2013-10-11 07:03:00,48.6,40.8,29.76,SW,225,2.9,13.4,75,0.00,,,0.00,WUHU21636XXSP,2013-10-11 12:03:00,
2013-10-11 07:13:00,48.0,40.3,29.76,SW,225,4.9,14.0,75,0.00,,,0.00,WUHU21636XXSP,2013-10-11 12:13:00,
2013-10-11 07:23:00,47.8,40.1,29.77,SW,225,1.7,13.6,76,0.00,,,0.00,WUHU21636XXSP,2013-10-11 12:23:00,
2013-10-11 07:33:00,47.5,40.5,29.77,West,270,0.0,6.9,77,0.00,,,0.00,WUHU21636XXSP,2013-10-11 12:33:00,
2013-10-11 07:43:00,47.3,40.3,29.77,SW,225,0.8,4.9,77,0.00,,,0.00,WUHU21636XXSP,2013-10-11 12:43:00,
2013-10-11 07:53:00,47.1,40.1,29.77,SW,225,4.2,17.0,77,0.00,,,0.00,WUHU21636XXSP,2013-10-11 12:53:00,
2013-10-11 08:03:00,47.1,40.1,29.77,SW,225,6.7,12.3,77,0.00,,,0.00,WUHU21636XXSP,2013-10-11 13:03:00,
2013-10-11 08:13:00,47.1,39.9,29.78,WNW,292,4.4,11.4,76,0.00,,,0.00,WUHU21636XXSP,2013-10-11 13:13:00,
2013-10-11 08:23:00,47.3,39.4,29.80,West,270,8.7,21.0,74,0.00,,,0.00,WUHU21636XXSP,2013-10-11 13:23:00,
2013-10-11 08:33:00,47.3,39.7,29.81,West,270,9.8,14.5,75,0.00,,,0.00,WUHU21636XXSP,2013-10-11 13:33:00,
2013-10-11 08:43:00,47.5,39.6,29.82,WNW,292,4.6,14.9,74,0.00,,,0.00,WUHU21636XXSP,2013-10-11 13:43:00,
2013-10-11 08:53:00,47.8,39.4,29.83,West,270,8.2,14.9,73,0.00,,,0.00,WUHU21636XXSP,2013-10-11 13:53:00,
2013-10-11 09:03:00,48.4,39.9,29.83,West,270,3.8,13.8,73,0.00,,,0.00,WUHU21636XXSP,2013-10-11 14:03:00,
2013-10-11 09:13:00,48.7,41.0,29.83,WSW,247,2.9,10.7,75,0.00,,,0.00,WUHU21636XXSP,2013-10-11 14:13:00,
2013-10-11 09:23:00,49.1,40.6,29.83,West,270,3.8,4.2,73,0.00,,,0.00,WUHU21636XXSP,2013-10-11 14:23:00,
2013-10-11 09:33:00,50.9,42.1,29.83,West,270,7.6,14.9,72,0.00,,,0.00,WUHU21636XXSP,2013-10-11 14:33:00,
2013-10-11 09:43:00,54.5,42.8,29.82,West,270,8.7,19.0,65,0.00,,,0.00,WUHU21636XXSP,2013-10-11 14:43:00,
2013-10-11 09:53:00,57.7,43.0,29.82,West,270,14.5,25.7,58,0.00,,,0.00,WUHU21636XXSP,2013-10-11 14:53:00,
2013-10-11 10:03:00,58.5,43.7,29.82,West,270,10.7,33.7,58,0.00,,,0.00,WUHU21636XXSP,2013-10-11 15:03:00,
2013-10-11 10:13:00,58.8,43.5,29.83,WNW,292,15.4,23.2,57,0.00,,,0.00,WUHU21636XXSP,2013-10-11 15:13:00,
2013-10-11 10:23:00,58.8,44.4,29.83,WNW,292,11.4,28.1,59,0.00,,,0.00,WUHU21636XXSP,2013-10-11 15:23:00,
2013-10-11 10:33:00,59.4,44.4,29.83,NW,315,12.3,22.3,58,0.00,,,0.00,WUHU21636XXSP,2013-10-11 15:33:00,
2013-10-11 10:43:00,60.3,45.9,29.84,WNW,292,11.8,20.3,59,0.00,,,0.00,WUHU21636XXSP,2013-10-11 15:43:00,
2013-10-11 10:53:00,60.6,45.1,29.84,WNW,292,13.4,27.0,57,0.00,,,0.00,WUHU21636XXSP,2013-10-11 15:53:00,
2013-10-11 11:03:00,60.4,44.6,29.85,North,0,17.8,31.3,56,0.00,,,0.00,WUHU21636XXSP,2013-10-11 16:03:00,
2013-10-11 11:13:00,61.0,45.1,29.85,NW,315,11.1,33.1,56,0.00,,,0.00,WUHU21636XXSP,2013-10-11 16:13:00,
2013-10-11 11:23:00,61.3,44.4,29.85,WNW,292,12.7,25.5,54,0.00,,,0.00,WUHU21636XXSP,2013-10-11 16:23:00,
2013-10-11 11:33:00,61.3,45.0,29.86,NW,315,15.4,27.2,55,0.00,,,0.00,WUHU21636XXSP,2013-10-11 16:33:00,
2013-10-11 11:43:00,61.0,44.6,29.87,NW,315,8.5,30.8,55,0.00,,,0.00,WUHU21636XXSP,2013-10-11 16:43:00,
2013-10-11 11:53:00,61.5,44.1,29.87,WNW,292,12.5,29.0,53,0.00,,,0.00,WUHU21636XXSP,2013-10-11 16:53:00,
2013-10-11 12:03:00,61.3,45.3,29.88,WNW,292,11.8,29.9,56,0.00,,,0.00,WUHU21636XXSP,2013-10-11 17:03:00,
2013-10-11 12:13:00,61.3,45.0,29.89,NNW,337,16.3,29.5,55,0.00,,,0.00,WUHU21636XXSP,2013-10-11 17:13:00,
2013-10-11 12:23:00,61.0,45.1,29.89,NW,315,14.0,31.3,56,0.00,,,0.00,WUHU21636XXSP,2013-10-11 17:23:00,
2013-10-11 12:33:00,61.2,44.8,29.89,NW,315,10.0,29.7,55,0.00,,,0.00,WUHU21636XXSP,2013-10-11 17:33:00,
2013-10-11 12:43:00,61.3,45.0,29.90,NNW,337,17.0,30.1,55,0.00,,,0.00,WUHU21636XXSP,2013-10-11 17:43:00,
2013-10-11 12:53:00,61.3,45.3,29.90,NW,315,10.2,30.6,56,0.00,,,0.00,WUHU21636XXSP,2013-10-11 17:53:00,
2013-10-11 13:03:00,61.5,44.6,29.90,NW,315,13.6,26.8,54,0.00,,,0.00,WUHU21636XXSP,2013-10-11 18:03:00,
2013-10-11 13:13:00,61.3,45.0,29.91,NNW,337,13.6,29.0,55,0.00,,,0.00,WUHU21636XXSP,2013-10-11 18:13:00,
2013-10-11 13:23:00,61.7,44.2,29.91,NW,315,11.8,33.5,53,0.00,,,0.00,WUHU21636XXSP,2013-10-11 18:23:00,
2013-10-11 13:34:00,61.7,44.8,29.91,NW,315,13.1,30.6,54,0.00,,,0.00,WUHU21636XXSP,2013-10-11 18:34:00,
2013-10-11 13:44:00,62.1,44.1,29.91,NW,315,11.8,29.0,52,0.00,,,0.00,WUHU21636XXSP,2013-10-11 18:44:00,
2013-10-11 13:54:00,61.9,45.0,29.92,WNW,292,12.0,27.9,54,0.00,,,0.00,WUHU21636XXSP,2013-10-11 18:54:00,
2013-10-11 14:04:00,62.6,44.1,29.92,WNW,292,17.0,29.0,51,0.00,,,0.00,WUHU21636XXSP,2013-10-11 19:04:00,
2013-10-11 14:14:00,62.4,43.5,29.92,NNW,337,12.9,32.6,50,0.00,,,0.00,WUHU21636XXSP,2013-10-11 19:14:00,
2013-10-11 14:24:00,63.1,44.1,29.93,WNW,292,12.9,32.2,50,0.00,,,0.00,WUHU21636XXSP,2013-10-11 19:24:00,
2013-10-11 14:34:00,63.3,44.2,29.93,North,0,11.1,30.8,50,0.00,,,0.00,WUHU21636XXSP,2013-10-11 19:34:00,
2013-10-11 14:44:00,63.7,43.5,29.93,NW,315,16.1,31.0,48,0.00,,,0.00,WUHU21636XXSP,2013-10-11 19:44:00,
2013-10-11 14:54:00,64.0,44.4,29.93,WNW,292,11.6,27.0,49,0.00,,,0.00,WUHU21636XXSP,2013-10-11 19:54:00,
2013-10-11 15:04:00,64.4,45.3,29.93,NW,315,11.8,30.6,50,0.00,,,0.00,WUHU21636XXSP,2013-10-11 20:04:00,
2013-10-11 15:14:00,64.8,45.7,29.94,NNW,337,13.8,37.5,50,0.00,,,0.00,WUHU21636XXSP,2013-10-11 20:14:00,
2013-10-11 15:24:00,65.7,44.8,29.94,NW,315,6.4,26.3,47,0.00,,,0.00,WUHU21636XXSP,2013-10-11 20:24:00,
2013-10-11 15:34:00,65.5,46.8,29.95,North,0,8.7,31.0,51,0.00,,,0.00,WUHU21636XXSP,2013-10-11 20:34:00,
2013-10-11 15:44:00,65.8,46.0,29.95,NNW,337,2.2,22.3,49,0.00,,,0.00,WUHU21636XXSP,2013-10-11 20:44:00,
2013-10-11 15:54:00,66.0,44.4,29.95,NNW,337,8.0,31.9,46,0.00,,,0.00,WUHU21636XXSP,2013-10-11 20:54:00,
2013-10-11 16:04:00,66.0,45.1,29.96,NW,315,11.6,30.6,47,0.00,,,0.00,WUHU21636XXSP,2013-10-11 21:04:00,
2013-10-11 16:14:00,64.9,44.1,29.97,NNE,22,9.1,27.0,47,0.00,,,0.00,WUHU21636XXSP,2013-10-11 21:14:00,
2013-10-11 16:24:00,65.3,45.0,29.98,NNW,337,8.2,25.7,48,0.00,,,0.00,WUHU21636XXSP,2013-10-11 21:24:00,
2013-10-11 16:34:00,65.5,43.3,29.98,NNW,337,13.6,26.1,45,0.00,,,0.00,WUHU21636XXSP,2013-10-11 21:34:00,
2013-10-11 16:44:00,65.3,44.4,29.98,NNE,22,12.3,26.8,47,0.00,,,0.00,WUHU21636XXSP,2013-10-11 21:44:00,
2013-10-11 16:54:00,65.1,43.7,29.98,NNE,22,9.3,23.7,46,0.00,,,0.00,WUHU21636XXSP,2013-10-11 21:54:00,
2013-10-11 17:04:00,64.9,42.8,29.99,NNW,337,10.5,24.8,45,0.00,,,0.00,WUHU21636XXSP,2013-10-11 22:04:00,
2013-10-11 17:14:00,65.1,43.7,30.00,NNW,337,10.0,22.8,46,0.00,,,0.00,WUHU21636XXSP,2013-10-11 22:14:00,
2013-10-11 17:24:00,64.9,42.3,30.01,NNE,22,3.5,27.0,44,0.00,,,0.00,WUHU21636XXSP,2013-10-11 22:24:00,
2013-10-11 17:34:00,64.9,42.3,30.01,NNE,22,12.7,20.3,44,0.00,,,0.00,WUHU21636XXSP,2013-10-11 22:34:00,
2013-10-11 17:44:00,64.0,42.1,30.02,NNE,22,0.2,21.2,45,0.00,,,0.00,WUHU21636XXSP,2013-10-11 22:44:00,
2013-10-11 17:54:00,63.9,43.0,30.02,NNE,22,3.8,12.7,46,0.00,,,0.00,WUHU21636XXSP,2013-10-11 22:54:00,
2013-10-11 18:04:00,63.1,41.2,30.03,NNW,337,1.7,4.6,45,0.00,,,0.00,WUHU21636XXSP,2013-10-11 23:04:00,
2013-10-11 18:14:00,62.2,42.1,30.03,NNE,22,0.0,6.7,48,0.00,,,0.00,WUHU21636XXSP,2013-10-11 23:14:00,
2013-10-11 18:24:00,61.9,41.9,30.04,North,0,0.0,2.0,48,0.00,,,0.00,WUHU21636XXSP,2013-10-11 23:24:00,
2013-10-11 18:34:00,61.3,41.9,30.04,North,0,4.0,4.0,49,0.00,,,0.00,WUHU21636XXSP,2013-10-11 23:34:00,
2013-10-11 18:44:00,60.4,41.2,30.05,NNE,22,3.8,4.0,49,0.00,,,0.00,WUHU21636XXSP,2013-10-11 23:44:00,
2013-10-11 18:54:00,60.1,40.8,30.06,NNE,22,0.8,4.6,49,0.00,,,0.00,WUHU21636XXSP,2013-10-11 23:54:00,
2013-10-11 19:04:00,59.7,40.5,30.07,NNE,22,2.9,4.4,49,0.00,,,0.00,WUHU21636XXSP,2013-10-12 00:04:00,
2013-10-11 19:14:00,59.4,40.6,30.07,NNE,22,0.0,2.9,50,0.00,,,0.00,WUHU21636XXSP,2013-10-12 00:14:00,
2013-10-11 19:24:00,59.2,40.5,30.07,NNE,22,0.0,0.0,50,0.00,,,0.00,WUHU21636XXSP,2013-10-12 00:24:00,
2013-10-11 19:34:00,59.0,40.8,30.07,NNE,22,0.0,0.0,51,0.00,,,0.00,WUHU21636XXSP,2013-10-12 00:34:00,
2013-10-11 19:44:00,58.6,41.5,30.08,NNE,22,0.0,0.0,53,0.00,,,0.00,WUHU21636XXSP,2013-10-12 00:44:00,
2013-10-11 19:54:00,58.3,41.2,30.09,NNE,22,0.0,0.0,53,0.00,,,0.00,WUHU21636XXSP,2013-10-12 00:54:00,
2013-10-11 20:04:00,57.9,41.4,30.09,NNE,22,0.0,0.0,54,0.00,,,0.00,WUHU21636XXSP,2013-10-12 01:04:00,
2013-10-11 20:14:00,57.7,41.5,30.09,NNE,22,0.0,0.0,55,0.00,,,0.00,WUHU21636XXSP,2013-10-12 01:14:00,
2013-10-11 20:24:00,57.4,41.7,30.10,NNE,22,0.0,0.0,56,0.00,,,0.00,WUHU21636XXSP,2013-10-12 01:24:00,
2013-10-11 20:34:00,56.8,41.2,30.10,NNE,22,0.0,0.0,56,0.00,,,0.00,WUHU21636XXSP,2013-10-12 01:34:00,
2013-10-11 20:44:00,56.7,41.5,30.11,NNE,22,0.0,0.0,57,0.00,,,0.00,WUHU21636XXSP,2013-10-12 01:44:00,
2013-10-11 20:54:00,56.3,41.2,30.11,NNE,22,0.0,0.0,57,0.00,,,0.00,WUHU21636XXSP,2013-10-12 01:54:00,
2013-10-11 21:04:00,56.1,41.0,30.11,NNE,22,0.0,0.0,57,0.00,,,0.00,WUHU21636XXSP,2013-10-12 02:04:00,
2013-10-11 21:14:00,55.8,40.6,30.12,NNE,22,0.0,0.0,58,0.00,,,0.00,WUHU21636XXSP,2013-10-12 02:14:00,
2013-10-11 21:24:00,55.4,40.6,30.12,NNE,22,0.0,0.0,58,0.00,,,0.00,WUHU21636XXSP,2013-10-12 02:24:00,
2013-10-11 21:34:00,55.0,40.5,30.13,NNE,22,0.0,0.0,58,0.00,,,0.00,WUHU21636XXSP,2013-10-12 02:34:00,
2013-10-11 21:44:00,54.7,40.1,30.13,North,0,0.0,0.0,58,0.00,,,0.00,WUHU21636XXSP,2013-10-12 02:44:00,
2013-10-11 21:54:00,54.1,40.1,30.14,North,0,0.0,0.0,59,0.00,,,0.00,WUHU21636XXSP,2013-10-12 02:54:00,
2013-10-11 22:04:00,53.4,40.3,30.14,North,0,0.0,0.0,61,0.00,,,0.00,WUHU21636XXSP,2013-10-12 03:04:00,
2013-10-11 22:14:00,53.2,40.1,30.14,North,0,0.0,0.0,61,0.00,,,0.00,WUHU21636XXSP,2013-10-12 03:14:00,
2013-10-11 22:24:00,53.1,40.3,30.15,North,0,0.0,0.0,62,0.00,,,0.00,WUHU21636XXSP,2013-10-12 03:24:00,
2013-10-11 22:34:00,52.9,40.1,30.15,North,0,0.0,0.0,62,0.00,,,0.00,WUHU21636XXSP,2013-10-12 03:34:00,
2013-10-11 22:44:00,52.7,39.9,30.16,North,0,0.0,0.6,63,0.00,,,0.00,WUHU21636XXSP,2013-10-12 03:44:00,
2013-10-11 22:54:00,52.3,39.9,30.16,NNW,337,3.3,3.3,63,0.00,,,0.00,WUHU21636XXSP,2013-10-12 03:54:00,
2013-10-11 23:04:00,52.2,40.3,30.16,NNW,337,1.1,3.3,64,0.00,,,0.00,WUHU21636XXSP,2013-10-12 04:04:00,
2013-10-11 23:14:00,52.0,39.6,30.17,NNW,337,0.0,2.0,63,0.00,,,0.00,WUHU21636XXSP,2013-10-12 04:14:00,
2013-10-11 23:24:00,52.0,39.6,30.17,NNW,337,0.0,2.2,65,0.00,,,0.00,WUHU21636XXSP,2013-10-12 04:24:00,
2013-10-11 23:34:00,51.6,40.1,30.17,NNW,337,2.6,2.6,66,0.00,,,0.00,WUHU21636XXSP,2013-10-12 04:34:00,
2013-10-11 23:44:00,51.6,40.5,30.18,NNW,337,5.3,5.3,66,0.00,,,0.00,WUHU21636XXSP,2013-10-12 04:44:00,
2013-10-11 23:54:00,51.4,40.3,30.19,NW,315,2.9,5.5,66,0.00,,,0.00,WUHU21636XXSP,2013-10-12 04:54:00,